Arvilla, North Dakota
Current Conditions -  °F | °C
As of 11:08 PM on Monday 26 Jan 2015 (Local Time) from KRDR Reporting Station
Clear Clear  
Wind Chill: 17°   Ceiling: Unl
Heat Index: 23°   Visibility: 9mi
Dew Point: 21°   Wind: 5mph
Humidity: 93%   Direction: 150°SSE
Pressure: 30.02"   Gusts: NA
Location:  47.92°N, 97.49°W
Report Text: KRDR 270508Z 15004KT 9SM CLR M05/M06 A3002 RMK AO2A
Loading
Personal Weather Stations






























Interactive Weather Map New forecast layout! Learn more

10-Day Weather Forecast

Advertisements
Track Severe Weather on mobile